Time;durP1;ratioP1;P1;durP2;ratioP2;P2;SDS_P1;SDS_P2;PMS_P1;PMS_P2;Temp;Humidity;BMP_temperature;BMP_pressure;BME280_temperature;BME280_humidity;BME280_pressure;Samples;Min_cycle;Max_cycle;Signal;HPM_P1;HPM_P2
2024/01/29 00:02:19;;;;;;;3.83;2.08;;;7.20;72.70;;;;;;4988474;28;20014;-68
2024/01/29 00:04:44;;;;;;;2.80;1.73;;;7.20;72.80;;;;;;4990337;28;20023;-67
2024/01/29 00:07:10;;;;;;;3.00;1.92;;;7.20;72.80;;;;;;4986474;28;20034;-66
2024/01/29 00:09:35;;;;;;;3.13;1.92;;;7.20;72.80;;;;;;4983675;28;20058;-67
2024/01/29 00:12:01;;;;;;;3.25;2.28;;;7.20;72.80;;;;;;4988805;28;20025;-67
2024/01/29 00:14:27;;;;;;;3.88;2.28;;;7.20;72.80;;;;;;4990784;28;20038;-67
2024/01/29 00:16:52;;;;;;;4.00;2.03;;;7.10;72.80;;;;;;4994417;28;20101;-67
2024/01/29 00:19:18;;;;;;;1.92;1.65;;;7.20;72.90;;;;;;4987516;28;20041;-68
2024/01/29 00:21:44;;;;;;;2.75;1.80;;;7.20;72.90;;;;;;4989561;28;20067;-67
2024/01/29 00:24:09;;;;;;;2.13;1.70;;;7.20;72.90;;;;;;4990094;28;20034;-65
2024/01/29 00:26:38;;;;;;;1.70;1.58;;;7.20;73.00;;;;;;4992151;28;20477;-67
2024/01/29 00:29:04;;;;;;;1.63;1.40;;;7.10;73.00;;;;;;4991951;28;20500;-67
2024/01/29 00:31:29;;;;;;;2.78;1.45;;;7.10;73.10;;;;;;4980777;28;20085;-67
2024/01/29 00:33:55;;;;;;;1.60;1.40;;;7.10;73.10;;;;;;4990019;28;20481;-67
2024/01/29 00:36:20;;;;;;;1.60;1.48;;;7.10;73.20;;;;;;5001912;28;20018;-67
2024/01/29 00:38:46;;;;;;;1.75;1.40;;;7.10;73.30;;;;;;4998482;28;20059;-67
2024/01/29 00:41:11;;;;;;;1.73;1.42;;;7.10;74.00;;;;;;4992242;28;20028;-66
2024/01/29 00:43:37;;;;;;;2.08;1.50;;;7.10;73.40;;;;;;4990482;28;20057;-66
2024/01/29 00:46:03;;;;;;;2.65;1.50;;;7.00;73.30;;;;;;5002803;28;20022;-66
2024/01/29 00:48:28;;;;;;;2.63;1.70;;;7.00;73.40;;;;;;4988212;28;20145;-67
2024/01/29 00:50:55;;;;;;;2.88;1.60;;;7.00;73.40;;;;;;4986244;28;20078;-67
2024/01/29 00:53:21;;;;;;;2.60;1.50;;;7.00;73.50;;;;;;4986666;28;20018;-67
2024/01/29 00:55:47;;;;;;;1.33;1.23;;;7.00;73.60;;;;;;4997463;28;20453;-66
2024/01/29 00:58:13;;;;;;;1.30;1.20;;;7.00;73.60;;;;;;5005090;28;20026;-67
2024/01/29 01:00:39;;;;;;;2.22;1.30;;;7.00;73.60;;;;;;4999911;28;20026;-67
2024/01/29 01:03:05;;;;;;;2.00;1.40;;;7.00;73.60;;;;;;4989550;28;20080;-66
2024/01/29 01:05:32;;;;;;;2.80;1.73;;;7.00;73.70;;;;;;4988331;28;20027;-67
2024/01/29 01:07:59;;;;;;;1.38;1.23;;;6.90;73.80;;;;;;4989589;28;20018;-67
2024/01/29 01:10:24;;;;;;;2.30;1.67;;;6.90;73.80;;;;;;4989855;28;20082;-67
2024/01/29 01:12:50;;;;;;;1.77;1.45;;;6.90;73.80;;;;;;4986655;28;20475;-67
2024/01/29 01:15:15;;;;;;;1.90;1.33;;;6.80;73.80;;;;;;4995957;28;20028;-67
2024/01/29 01:17:41;;;;;;;1.35;1.25;;;6.80;73.90;;;;;;4996275;28;20489;-67
2024/01/29 01:20:07;;;;;;;2.10;1.50;;;6.80;73.90;;;;;;4999741;28;20493;-66
2024/01/29 01:22:32;;;;;;;2.05;1.83;;;6.80;73.90;;;;;;4992889;28;20113;-66
2024/01/29 01:24:58;;;;;;;1.92;1.50;;;6.80;73.90;;;;;;4989525;28;20030;-68
2024/01/29 01:27:24;;;;;;;3.63;1.90;;;6.80;74.00;;;;;;4992149;28;20456;-70
2024/01/29 01:29:50;;;;;;;1.88;1.50;;;6.80;74.00;;;;;;4991582;28;20673;-68
2024/01/29 01:32:15;;;;;;;2.83;1.90;;;6.70;74.00;;;;;;4987215;28;20077;-68
2024/01/29 01:34:42;;;;;;;1.70;1.50;;;6.70;74.10;;;;;;4989205;28;20027;-67
2024/01/29 01:37:08;;;;;;;2.13;1.60;;;6.70;74.20;;;;;;4989851;28;20706;-68
2024/01/29 01:39:34;;;;;;;1.98;1.77;;;6.60;74.10;;;;;;4989837;28;20097;-68
2024/01/29 01:41:59;;;;;;;2.78;1.80;;;6.60;74.10;;;;;;4990581;28;20113;-67
2024/01/29 01:44:25;;;;;;;2.08;1.88;;;6.60;74.20;;;;;;4997864;28;20030;-67
2024/01/29 01:46:51;;;;;;;2.45;1.70;;;6.60;74.30;;;;;;5002346;28;20022;-67
2024/01/29 01:49:16;;;;;;;2.35;1.60;;;6.60;74.30;;;;;;4982169;28;20034;-67
2024/01/29 01:51:43;;;;;;;2.55;2.00;;;6.50;74.30;;;;;;4993914;28;20388;-68
2024/01/29 01:54:09;;;;;;;2.38;1.80;;;6.60;74.30;;;;;;4995584;28;20022;-68
2024/01/29 01:56:36;;;;;;;2.22;1.70;;;6.50;74.40;;;;;;4986793;28;20054;-68
2024/01/29 01:59:04;;;;;;;1.80;1.50;;;6.50;74.40;;;;;;4989295;28;20485;-68
2024/01/29 02:01:31;;;;;;;2.95;1.83;;;6.50;74.40;;;;;;5003946;28;20420;-68
2024/01/29 02:03:57;;;;;;;2.95;1.90;;;6.60;74.40;;;;;;4991930;28;20030;-67
2024/01/29 02:06:23;;;;;;;1.75;1.63;;;6.50;74.40;;;;;;4989942;28;20041;-68
2024/01/29 02:08:49;;;;;;;2.63;1.80;;;6.50;74.50;;;;;;4998555;28;20021;-68
2024/01/29 02:11:14;;;;;;;2.28;1.70;;;6.50;74.50;;;;;;5003008;28;20026;-68
2024/01/29 02:13:40;;;;;;;1.85;1.50;;;6.50;74.60;;;;;;4993593;28;20014;-68
2024/01/29 02:16:05;;;;;;;1.73;1.60;;;6.40;74.50;;;;;;5009564;28;20026;-68
2024/01/29 02:18:31;;;;;;;2.28;1.40;;;6.40;74.50;;;;;;5000544;28;20027;-69
2024/01/29 02:20:57;;;;;;;1.63;1.40;;;6.40;74.50;;;;;;4993591;28;20037;-68
2024/01/29 02:23:23;;;;;;;1.70;1.40;;;6.50;74.60;;;;;;4989837;28;20183;-68
2024/01/29 02:25:48;;;;;;;2.15;1.58;;;6.50;74.60;;;;;;4996520;28;20029;-69
2024/01/29 02:28:14;;;;;;;2.03;1.60;;;6.50;74.70;;;;;;4994652;28;20033;-68
2024/01/29 02:30:39;;;;;;;2.42;1.30;;;6.50;74.70;;;;;;4993246;28;20046;-68
2024/01/29 02:33:05;;;;;;;1.70;1.60;;;6.50;74.70;;;;;;4985905;28;20437;-69
2024/01/29 02:35:30;;;;;;;2.22;1.70;;;6.50;74.80;;;;;;4982936;28;20481;-68
2024/01/29 02:37:56;;;;;;;2.40;1.80;;;6.50;74.80;;;;;;4984645;28;20070;-69
2024/01/29 02:40:21;;;;;;;2.30;1.67;;;6.40;74.80;;;;;;4978217;28;20030;-69
2024/01/29 02:42:47;;;;;;;1.90;1.70;;;6.50;74.80;;;;;;4986657;28;20430;-69
2024/01/29 02:45:13;;;;;;;2.33;1.60;;;6.50;74.80;;;;;;4986317;28;20026;-68
2024/01/29 02:47:38;;;;;;;2.42;1.30;;;6.50;74.80;;;;;;4990430;28;20092;-68
2024/01/29 02:50:04;;;;;;;1.48;1.38;;;6.50;74.90;;;;;;4992234;28;20098;-68
2024/01/29 02:52:29;;;;;;;1.42;1.23;;;6.50;74.90;;;;;;4992051;28;20026;-69
2024/01/29 02:54:55;;;;;;;1.65;1.23;;;6.50;74.90;;;;;;4985307;28;20027;-68
2024/01/29 02:57:23;;;;;;;1.42;1.27;;;6.40;74.90;;;;;;4982638;28;20030;-69
2024/01/29 02:59:50;;;;;;;1.67;1.40;;;6.50;75.00;;;;;;4989030;28;20029;-70
2024/01/29 03:02:16;;;;;;;1.48;1.33;;;6.40;75.00;;;;;;4997979;28;20026;-68
2024/01/29 03:04:41;;;;;;;1.52;1.20;;;6.40;75.10;;;;;;4986499;28;20054;-68
2024/01/29 03:07:07;;;;;;;1.45;1.30;;;6.40;75.20;;;;;;4990146;28;20072;-69
2024/01/29 03:09:32;;;;;;;1.50;1.25;;;6.30;75.20;;;;;;4992944;28;20045;-68
2024/01/29 03:11:58;;;;;;;1.85;1.50;;;6.30;75.20;;;;;;4992574;28;20029;-69
2024/01/29 03:14:24;;;;;;;2.75;1.60;;;6.30;75.30;;;;;;4995738;28;20023;-69
2024/01/29 03:16:52;;;;;;;1.55;1.45;;;6.30;75.40;;;;;;4995812;28;20058;-68
2024/01/29 03:19:20;;;;;;;1.98;1.50;;;6.30;75.40;;;;;;4990608;28;20022;-68
2024/01/29 03:21:46;;;;;;;2.17;1.30;;;6.30;75.40;;;;;;4989344;28;20034;-68
2024/01/29 03:24:12;;;;;;;1.67;1.30;;;6.30;75.40;;;;;;4991159;28;20022;-68
2024/01/29 03:26:38;;;;;;;1.50;1.40;;;6.30;75.50;;;;;;4984458;28;20116;-67
2024/01/29 03:29:03;;;;;;;1.95;1.40;;;6.30;75.50;;;;;;4993587;28;20058;-67
2024/01/29 03:31:29;;;;;;;1.63;1.33;;;6.30;75.50;;;;;;4991865;28;20028;-67
2024/01/29 03:33:55;;;;;;;1.80;1.45;;;6.30;75.40;;;;;;4985710;28;20502;-67
2024/01/29 03:36:21;;;;;;;2.13;1.40;;;6.30;75.50;;;;;;4986835;28;20033;-67
2024/01/29 03:38:47;;;;;;;1.35;1.25;;;6.40;75.50;;;;;;4989342;28;20488;-67
2024/01/29 03:41:12;;;;;;;1.92;1.48;;;6.40;75.50;;;;;;4994502;28;20045;-67
2024/01/29 03:43:38;;;;;;;1.60;1.35;;;6.40;75.60;;;;;;4991498;28;20496;-67
2024/01/29 03:46:04;;;;;;;1.70;1.40;;;6.40;75.50;;;;;;4995034;28;20364;-67
2024/01/29 03:48:29;;;;;;;2.03;1.70;;;6.40;76.20;;;;;;4991563;28;20113;-66
2024/01/29 03:50:55;;;;;;;1.95;1.75;;;6.50;75.60;;;;;;4990784;28;20027;-66
2024/01/29 03:53:20;;;;;;;3.75;2.08;;;6.40;75.50;;;;;;4991484;28;20495;-66
2024/01/29 03:55:47;;;;;;;2.28;1.90;;;6.40;75.60;;;;;;4989005;28;20030;-65
2024/01/29 03:58:13;;;;;;;2.17;1.50;;;6.50;75.60;;;;;;4990993;28;20053;-65
2024/01/29 04:00:39;;;;;;;2.00;1.80;;;6.50;75.50;;;;;;4992028;28;20057;-66
2024/01/29 04:03:04;;;;;;;2.85;1.77;;;6.50;75.60;;;;;;4995275;28;20018;-66
2024/01/29 04:05:30;;;;;;;1.85;1.70;;;6.50;75.60;;;;;;4992482;28;20053;-67
2024/01/29 04:07:56;;;;;;;2.13;1.80;;;6.50;75.70;;;;;;4990453;28;20019;-67
2024/01/29 04:10:21;;;;;;;1.60;1.50;;;6.50;75.60;;;;;;5021202;28;20152;-67
2024/01/29 04:12:47;;;;;;;3.38;2.20;;;6.50;75.60;;;;;;4983331;28;20323;-70
2024/01/29 04:15:12;;;;;;;4.20;3.10;;;6.50;75.70;;;;;;4988259;28;20042;-67
2024/01/29 04:17:38;;;;;;;3.65;2.78;;;6.50;75.70;;;;;;4987811;28;20493;-67
2024/01/29 04:20:07;;;;;;;4.05;2.95;;;6.50;75.70;;;;;;4985995;28;20420;-66
2024/01/29 04:22:33;;;;;;;4.95;3.38;;;6.60;75.70;;;;;;4991057;28;20632;-66
2024/01/29 04:25:00;;;;;;;5.93;3.70;;;6.60;75.70;;;;;;4993053;28;20112;-67
2024/01/29 04:27:26;;;;;;;5.97;4.13;;;6.60;75.80;;;;;;4991916;28;20030;-67
2024/01/29 04:29:51;;;;;;;5.28;3.35;;;6.60;75.70;;;;;;4991057;28;20030;-67
2024/01/29 04:32:17;;;;;;;5.85;3.40;;;6.60;75.70;;;;;;4988875;28;20050;-66
2024/01/29 04:34:42;;;;;;;6.70;3.80;;;6.60;75.70;;;;;;4988499;28;20054;-68
2024/01/29 04:37:09;;;;;;;4.63;3.20;;;6.60;75.80;;;;;;4989839;28;20481;-67
2024/01/29 04:39:37;;;;;;;4.97;2.70;;;6.60;75.70;;;;;;4990399;28;20117;-66
2024/01/29 04:42:03;;;;;;;4.50;3.40;;;6.60;75.80;;;;;;4990954;28;20537;-67
2024/01/29 04:44:29;;;;;;;3.90;3.00;;;6.60;75.70;;;;;;4989582;28;20101;-66
2024/01/29 04:46:54;;;;;;;3.92;2.60;;;6.60;75.80;;;;;;4988718;28;20030;-66
2024/01/29 04:49:20;;;;;;;4.32;2.38;;;6.70;75.80;;;;;;4986863;28;20034;-67
2024/01/29 04:51:45;;;;;;;6.78;3.35;;;6.70;75.80;;;;;;4990110;28;20046;-67
2024/01/29 04:54:11;;;;;;;3.78;2.80;;;6.70;75.80;;;;;;4988746;28;20037;-66
2024/01/29 04:56:36;;;;;;;3.03;2.40;;;6.70;75.90;;;;;;4988941;28;20706;-66
2024/01/29 04:59:03;;;;;;;4.28;2.50;;;6.70;75.90;;;;;;4989955;28;20038;-67
2024/01/29 05:01:28;;;;;;;2.75;2.30;;;6.70;75.90;;;;;;4991895;28;20177;-66
2024/01/29 05:03:54;;;;;;;4.07;2.85;;;6.70;75.90;;;;;;4985780;28;20097;-67
2024/01/29 05:06:19;;;;;;;4.68;3.30;;;6.70;75.90;;;;;;4989249;28;20035;-67
2024/01/29 05:08:45;;;;;;;4.13;2.90;;;6.70;75.90;;;;;;4987051;28;20665;-67
2024/01/29 05:11:11;;;;;;;4.30;3.00;;;6.70;76.00;;;;;;4992335;28;20031;-67
2024/01/29 05:13:36;;;;;;;4.03;2.90;;;6.70;76.00;;;;;;4993811;28;20025;-67
2024/01/29 05:16:02;;;;;;;3.72;2.67;;;6.70;76.00;;;;;;4993516;28;20107;-67
2024/01/29 05:18:27;;;;;;;5.95;2.95;;;6.70;76.00;;;;;;4993768;28;20055;-67
2024/01/29 05:20:53;;;;;;;3.97;2.90;;;6.70;76.10;;;;;;4985328;28;20113;-67
2024/01/29 05:23:19;;;;;;;5.53;3.58;;;6.60;76.10;;;;;;4987165;28;20033;-68
2024/01/29 05:25:44;;;;;;;4.28;3.30;;;6.60;76.10;;;;;;4987278;28;20085;-68
2024/01/29 05:28:10;;;;;;;3.67;2.80;;;6.60;76.20;;;;;;4992333;28;20417;-68
2024/01/29 05:30:35;;;;;;;4.00;2.78;;;6.60;76.20;;;;;;4982928;28;20043;-68
2024/01/29 05:33:01;;;;;;;4.60;2.60;;;6.60;76.30;;;;;;4989301;28;20081;-68
2024/01/29 05:35:27;;;;;;;2.75;2.20;;;6.60;76.30;;;;;;4984082;28;20038;-69
2024/01/29 05:37:52;;;;;;;3.58;2.40;;;6.60;76.30;;;;;;4991243;28;20032;-69
2024/01/29 05:40:18;;;;;;;4.25;2.65;;;6.60;76.30;;;;;;4989541;28;20026;-68
2024/01/29 05:42:43;;;;;;;2.20;1.88;;;6.60;76.30;;;;;;4990672;28;20038;-69
2024/01/29 05:45:09;;;;;;;3.60;2.10;;;6.60;76.40;;;;;;4985296;28;20073;-67
2024/01/29 05:47:35;;;;;;;3.55;1.73;;;6.60;76.40;;;;;;4998039;28;20061;-68
2024/01/29 05:50:02;;;;;;;4.38;2.22;;;6.60;76.50;;;;;;4997037;28;20121;-67
2024/01/29 05:52:28;;;;;;;2.80;1.92;;;6.60;76.50;;;;;;4986524;28;20456;-66
2024/01/29 05:54:53;;;;;;;2.75;1.90;;;6.60;76.60;;;;;;4988363;28;20061;-66
2024/01/29 05:57:19;;;;;;;2.13;1.80;;;6.50;76.60;;;;;;4997877;28;20052;-67
2024/01/29 05:59:44;;;;;;;2.17;1.42;;;6.50;76.70;;;;;;4992872;28;20029;-67
2024/01/29 06:02:10;;;;;;;1.60;1.50;;;6.50;76.70;;;;;;4998381;28;20023;-68
2024/01/29 06:04:36;;;;;;;2.13;1.80;;;6.50;76.80;;;;;;4994690;28;20029;-67
2024/01/29 06:07:01;;;;;;;1.95;1.55;;;6.50;76.80;;;;;;4993172;28;20695;-67
2024/01/29 06:09:27;;;;;;;2.42;1.80;;;6.40;76.80;;;;;;4992985;28;20061;-67
2024/01/29 06:11:54;;;;;;;2.30;1.67;;;6.50;77.00;;;;;;4989462;28;20492;-68
2024/01/29 06:14:20;;;;;;;2.00;1.50;;;6.40;76.90;;;;;;4986093;28;20022;-66
2024/01/29 06:16:45;;;;;;;1.50;1.40;;;6.40;76.90;;;;;;4989261;28;20033;-68
2024/01/29 06:19:14;;;;;;;1.85;1.55;;;6.50;76.90;;;;;;4991941;28;20105;-69
2024/01/29 06:21:41;;;;;;;1.50;1.40;;;6.40;76.90;;;;;;4991254;28;20030;-68
2024/01/29 06:24:07;;;;;;;2.35;1.65;;;6.30;76.90;;;;;;4989626;28;20348;-67
2024/01/29 06:26:33;;;;;;;1.88;1.50;;;6.30;77.60;;;;;;4989854;28;20033;-68
2024/01/29 06:28:58;;;;;;;2.53;1.88;;;6.30;77.00;;;;;;4987154;28;20054;-67
2024/01/29 06:31:24;;;;;;;2.58;1.70;;;6.20;77.10;;;;;;4984011;28;20041;-67
2024/01/29 06:33:53;;;;;;;1.77;1.50;;;6.20;77.20;;;;;;4989978;28;20030;-68
2024/01/29 06:36:19;;;;;;;2.53;1.98;;;6.20;77.20;;;;;;4993017;28;20018;-68
2024/01/29 06:38:44;;;;;;;2.45;1.88;;;6.20;77.30;;;;;;4984149;28;20101;-68
2024/01/29 06:41:23;;;;;;;2.90;1.92;;;6.20;77.30;;;;;;4998881;28;20034;-68
2024/01/29 06:43:49;;;;;;;2.67;2.20;;;6.20;77.30;;;;;;4997281;28;20018;-68
2024/01/29 06:46:15;;;;;;;2.97;2.22;;;6.20;77.30;;;;;;4991046;28;20026;-68
2024/01/29 06:48:41;;;;;;;2.72;2.20;;;6.20;77.30;;;;;;4992565;28;20025;-69
2024/01/29 06:51:06;;;;;;;3.13;2.08;;;6.30;78.00;;;;;;4997843;28;20088;-67
2024/01/29 06:53:33;;;;;;;2.40;1.90;;;6.30;77.30;;;;;;4986348;28;20045;-68
2024/01/29 06:55:59;;;;;;;3.10;2.28;;;6.30;77.30;;;;;;4986433;28;20026;-69
2024/01/29 06:58:25;;;;;;;2.92;1.90;;;6.30;77.40;;;;;;4990744;28;20045;-68
2024/01/29 07:00:51;;;;;;;3.75;2.10;;;6.30;77.40;;;;;;4983759;28;20034;-70
2024/01/29 07:03:18;;;;;;;2.17;1.75;;;6.30;77.40;;;;;;4989407;28;20524;-68
2024/01/29 07:05:45;;;;;;;1.73;1.60;;;6.30;77.40;;;;;;4985274;28;20046;-68
2024/01/29 07:08:11;;;;;;;2.38;1.58;;;6.30;77.40;;;;;;4992122;28;20470;-68
2024/01/29 07:10:37;;;;;;;2.97;1.90;;;6.30;77.40;;;;;;4994870;28;20485;-69
2024/01/29 07:13:03;;;;;;;2.05;1.73;;;6.30;77.50;;;;;;4997694;28;20018;-70
2024/01/29 07:15:28;;;;;;;2.30;1.77;;;6.30;77.50;;;;;;4998131;28;20030;-69
2024/01/29 07:17:54;;;;;;;2.53;1.65;;;6.30;77.50;;;;;;4990576;28;20113;-68
2024/01/29 07:20:20;;;;;;;3.15;1.77;;;6.30;77.50;;;;;;4992161;28;20061;-69
2024/01/29 07:22:46;;;;;;;2.03;1.70;;;6.30;77.60;;;;;;4989760;28;20183;-70
2024/01/29 07:25:11;;;;;;;1.95;1.60;;;6.30;77.60;;;;;;4992533;28;20488;-69
2024/01/29 07:27:37;;;;;;;2.28;1.67;;;6.30;77.60;;;;;;4991528;28;20070;-69
2024/01/29 07:30:03;;;;;;;2.25;1.80;;;6.30;77.70;;;;;;4993569;28;20023;-69
2024/01/29 07:32:31;;;;;;;1.63;1.52;;;6.30;77.70;;;;;;4989415;28;20022;-69
2024/01/29 07:35:00;;;;;;;1.98;1.77;;;6.30;77.80;;;;;;4992350;28;20049;-69
2024/01/29 07:37:27;;;;;;;2.42;1.80;;;6.30;77.80;;;;;;4988104;28;20022;-69
2024/01/29 07:39:53;;;;;;;1.83;1.48;;;6.30;77.80;;;;;;4983137;28;20027;-70
2024/01/29 07:42:19;;;;;;;1.77;1.45;;;6.40;77.80;;;;;;4991432;28;20038;-69
2024/01/29 07:44:44;;;;;;;3.28;2.30;;;6.40;77.80;;;;;;4995311;28;20041;-68
2024/01/29 07:47:10;;;;;;;3.53;2.30;;;6.40;77.80;;;;;;4982989;28;20054;-68
2024/01/29 07:49:36;;;;;;;3.13;2.30;;;6.40;77.80;;;;;;4987590;28;20234;-69
2024/01/29 07:52:02;;;;;;;4.07;3.00;;;6.50;77.70;;;;;;4985254;28;20063;-68
2024/01/29 07:54:27;;;;;;;6.05;3.50;;;6.50;77.70;;;;;;4984181;28;20092;-68
2024/01/29 07:56:53;;;;;;;4.57;2.95;;;6.60;77.70;;;;;;4984088;28;20026;-68
2024/01/29 07:59:18;;;;;;;4.82;3.40;;;6.60;77.70;;;;;;4985427;28;20023;-67
2024/01/29 08:01:44;;;;;;;4.63;2.90;;;6.60;77.70;;;;;;4983894;28;20030;-67
2024/01/29 08:04:11;;;;;;;4.07;2.60;;;6.60;77.60;;;;;;4985667;28;20038;-67
2024/01/29 08:06:36;;;;;;;6.40;3.88;;;6.70;77.60;;;;;;4983421;28;20440;-71
2024/01/29 08:09:04;;;;;;;4.53;3.22;;;6.70;77.60;;;;;;4983456;28;20027;-67
2024/01/29 08:11:30;;;;;;;6.13;3.50;;;6.80;77.70;;;;;;4980405;28;20027;-68
2024/01/29 08:13:56;;;;;;;3.63;2.72;;;6.80;77.60;;;;;;4981181;28;20022;-70
2024/01/29 08:16:21;;;;;;;3.15;2.30;;;6.90;77.60;;;;;;4982506;28;20026;-69
2024/01/29 08:18:47;;;;;;;3.92;2.67;;;7.00;77.60;;;;;;4978278;28;20040;-70
2024/01/29 08:21:13;;;;;;;4.82;3.30;;;7.00;77.50;;;;;;4976296;28;20081;-69
2024/01/29 08:23:38;;;;;;;4.88;3.00;;;7.00;77.50;;;;;;4970789;28;20536;-70
2024/01/29 08:26:04;;;;;;;4.10;3.00;;;7.10;77.50;;;;;;4984668;28;20509;-69
2024/01/29 08:28:29;;;;;;;4.68;3.03;;;7.10;77.50;;;;;;4988292;28;20150;-70
2024/01/29 08:30:58;;;;;;;2.80;2.22;;;7.20;77.40;;;;;;4977317;28;20024;-70
2024/01/29 08:33:28;;;;;;;3.58;2.58;;;7.20;77.40;;;;;;4985443;28;20021;-69
2024/01/29 08:35:54;;;;;;;4.38;3.20;;;7.30;77.30;;;;;;4983022;28;20101;-69
2024/01/29 08:38:20;;;;;;;4.63;2.88;;;7.30;77.30;;;;;;4989702;28;20023;-69
2024/01/29 08:40:46;;;;;;;6.40;4.15;;;7.40;77.30;;;;;;4979693;28;20388;-70
2024/01/29 08:43:11;;;;;;;4.55;3.38;;;7.40;77.40;;;;;;4989452;28;20464;-69
2024/01/29 08:45:37;;;;;;;5.88;3.92;;;7.40;77.40;;;;;;4987527;28;20034;-69
2024/01/29 08:48:06;;;;;;;5.18;3.30;;;7.50;77.40;;;;;;4986158;28;20088;-71
2024/01/29 08:50:36;;;;;;;5.15;3.53;;;7.50;77.30;;;;;;4986368;28;20504;-69
2024/01/29 08:53:03;;;;;;;6.80;3.75;;;7.60;77.30;;;;;;4985231;28;20046;-68
2024/01/29 08:55:30;;;;;;;4.25;3.10;;;7.60;77.40;;;;;;4983273;28;20035;-68
2024/01/29 08:57:56;;;;;;;4.00;2.80;;;7.60;77.40;;;;;;4979787;28;20018;-69
2024/01/29 09:00:22;;;;;;;6.32;3.90;;;7.60;77.30;;;;;;4987509;28;20014;-69
2024/01/29 09:02:49;;;;;;;5.40;3.83;;;7.70;77.40;;;;;;4984622;28;20046;-68
2024/01/29 09:05:16;;;;;;;8.32;4.10;;;7.70;77.40;;;;;;4977794;28;20025;-68
2024/01/29 09:07:41;;;;;;;6.05;3.78;;;7.70;77.40;;;;;;4971089;28;20022;-69
2024/01/29 09:10:07;;;;;;;5.30;3.80;;;7.80;77.40;;;;;;4985170;28;20543;-68
2024/01/29 09:12:33;;;;;;;5.68;4.47;;;7.70;77.40;;;;;;4987718;28;20030;-68
2024/01/29 09:14:59;;;;;;;6.47;4.57;;;7.80;77.40;;;;;;4985167;28;20032;-69
2024/01/29 09:17:24;;;;;;;4.70;3.35;;;7.80;77.50;;;;;;4987167;28;20031;-68
2024/01/29 09:19:51;;;;;;;7.18;4.32;;;7.80;77.50;;;;;;4988196;28;20026;-69
2024/01/29 09:22:17;;;;;;;7.28;4.22;;;7.80;77.50;;;;;;4991758;28;20822;-69
2024/01/29 09:24:43;;;;;;;5.18;3.47;;;7.80;77.50;;;;;;4989314;28;20019;-69
2024/01/29 09:27:08;;;;;;;4.78;3.03;;;7.90;77.50;;;;;;4990253;28;20029;-69
2024/01/29 09:29:34;;;;;;;6.38;4.25;;;7.90;77.50;;;;;;4990884;28;20113;-69
2024/01/29 09:32:00;;;;;;;6.88;4.70;;;8.00;77.40;;;;;;4989047;28;20089;-69
2024/01/29 09:34:27;;;;;;;5.50;3.90;;;8.00;77.50;;;;;;4988808;28;20033;-68
2024/01/29 09:36:53;;;;;;;6.13;4.18;;;7.90;77.50;;;;;;4990030;28;20394;-68
2024/01/29 09:39:19;;;;;;;7.15;4.68;;;7.90;77.60;;;;;;4987764;28;20485;-68
2024/01/29 09:41:46;;;;;;;6.20;4.55;;;8.00;77.70;;;;;;4989695;28;20084;-68
2024/01/29 09:44:12;;;;;;;7.32;4.80;;;8.00;77.70;;;;;;4991534;28;20090;-69
2024/01/29 09:46:40;;;;;;;6.95;4.30;;;8.00;77.70;;;;;;4988551;28;20030;-69
2024/01/29 09:49:07;;;;;;;6.03;3.78;;;8.00;77.70;;;;;;4994712;28;20034;-69
2024/01/29 09:51:33;;;;;;;5.05;3.10;;;8.10;77.70;;;;;;4991448;28;20069;-68
2024/01/29 09:54:03;;;;;;;3.53;2.47;;;8.20;77.70;;;;;;4990362;28;20393;-69
2024/01/29 09:56:29;;;;;;;5.05;3.33;;;8.30;77.70;;;;;;4987621;28;20049;-67
2024/01/29 09:58:55;;;;;;;3.53;2.58;;;8.40;77.60;;;;;;4987718;28;20497;-68
2024/01/29 10:01:22;;;;;;;3.72;2.50;;;8.40;77.50;;;;;;4985041;28;20041;-68
2024/01/29 10:03:48;;;;;;;4.00;2.85;;;8.50;77.40;;;;;;4987505;28;20519;-68
2024/01/29 10:06:14;;;;;;;4.95;3.72;;;8.60;77.30;;;;;;4980866;28;20440;-67
2024/01/29 10:08:40;;;;;;;6.28;3.35;;;8.60;77.20;;;;;;4985579;28;20022;-68
2024/01/29 10:11:07;;;;;;;6.70;3.67;;;8.70;77.20;;;;;;4985433;28;20030;-68
2024/01/29 10:13:33;;;;;;;6.82;4.00;;;8.70;77.20;;;;;;4982445;28;20035;-68
2024/01/29 10:15:59;;;;;;;7.97;4.78;;;8.80;77.20;;;;;;4990419;28;20589;-68
2024/01/29 10:18:24;;;;;;;6.07;4.65;;;8.80;77.10;;;;;;4989219;28;20036;-68
2024/01/29 10:21:04;;;;;;;7.72;4.93;;;8.80;77.00;;;;;;4984806;28;20035;-67
2024/01/29 10:23:30;;;;;;;6.07;4.07;;;8.80;77.00;;;;;;4985732;28;20022;-68
2024/01/29 10:25:57;;;;;;;7.40;4.70;;;8.90;77.00;;;;;;4987670;28;20022;-68
2024/01/29 10:28:26;;;;;;;6.32;4.47;;;8.90;77.00;;;;;;4987962;28;20489;-67
2024/01/29 10:30:55;;;;;;;4.80;3.88;;;8.90;77.00;;;;;;4987039;28;20657;-69
2024/01/29 10:33:24;;;;;;;5.43;3.72;;;8.90;77.00;;;;;;4984058;28;20023;-69
2024/01/29 10:35:49;;;;;;;9.07;4.80;;;8.90;77.00;;;;;;4990533;28;20391;-69
2024/01/29 10:38:21;;;;;;;6.40;3.60;;;8.90;77.00;;;;;;4988468;28;20022;-68
2024/01/29 10:40:47;;;;;;;5.38;3.50;;;9.00;77.10;;;;;;4984777;28;20485;-69
2024/01/29 10:43:20;;;;;;;5.55;4.10;;;9.00;77.20;;;;;;5001891;28;20033;-72
2024/01/29 10:45:49;;;;;;;6.65;4.18;;;9.00;77.20;;;;;;4983588;28;20517;-69
2024/01/29 10:48:25;;;;;;;6.03;4.38;;;9.00;77.20;;;;;;4984034;28;20481;-69
2024/01/29 10:50:51;;;;;;;9.23;5.20;;;9.00;77.20;;;;;;4994844;28;20088;-69
2024/01/29 10:53:18;;;;;;;6.22;4.25;;;9.00;77.20;;;;;;4987947;28;20580;-69
2024/01/29 10:55:46;;;;;;;6.13;4.60;;;9.10;77.20;;;;;;4993567;28;20022;-68
2024/01/29 10:58:13;;;;;;;8.02;5.60;;;9.20;77.90;;;;;;4990800;28;20046;-68
2024/01/29 11:00:41;;;;;;;7.32;4.60;;;9.20;77.20;;;;;;4991640;28;20022;-68
2024/01/29 11:03:09;;;;;;;5.45;3.90;;;9.20;77.20;;;;;;4990597;28;20061;-68
2024/01/29 11:05:35;;;;;;;7.38;4.47;;;9.30;77.20;;;;;;4985719;28;20477;-69
2024/01/29 11:08:03;;;;;;;6.45;4.32;;;9.30;77.10;;;;;;4986232;28;20081;-69
2024/01/29 11:10:31;;;;;;;5.53;4.15;;;9.40;77.10;;;;;;4990544;28;20377;-69
2024/01/29 11:12:58;;;;;;;5.72;3.40;;;9.40;77.10;;;;;;4990377;28;20025;-69
2024/01/29 11:15:24;;;;;;;6.15;4.22;;;9.50;77.10;;;;;;4990430;28;20054;-69
2024/01/29 11:17:49;;;;;;;7.95;4.60;;;9.60;77.00;;;;;;4988414;28;20745;-69
2024/01/29 11:20:17;;;;;;;4.40;3.25;;;9.60;76.90;;;;;;4997073;28;20160;-69
2024/01/29 11:22:51;;;;;;;3.50;2.55;;;9.70;77.00;;;;;;4987377;28;20109;-70
2024/01/29 11:25:17;;;;;;;5.53;3.25;;;9.70;77.00;;;;;;4990243;28;20030;-70
2024/01/29 11:27:44;;;;;;;4.05;3.00;;;9.80;76.90;;;;;;4985932;28;20027;-69
2024/01/29 11:30:16;;;;;;;4.03;2.80;;;9.90;76.90;;;;;;4981661;28;20213;-69
2024/01/29 11:32:41;;;;;;;;;;;9.90;76.90;;;;;;4989671;28;20034;-68
2024/01/29 11:35:14;;;;;;;3.72;2.75;;;10.00;76.80;;;;;;4988674;28;19932;-68
2024/01/29 11:37:41;;;;;;;5.15;3.58;;;10.00;76.80;;;;;;4989453;28;20049;-67
2024/01/29 11:40:31;;;;;;;4.38;3.28;;;10.10;76.80;;;;;;4991688;28;20084;-68
2024/01/29 11:42:56;;;;;;;5.95;3.42;;;10.10;76.90;;;;;;4984281;28;20757;-68
2024/01/29 11:45:23;;;;;;;4.53;2.60;;;10.20;76.80;;;;;;4978391;28;20030;-68
2024/01/29 11:47:49;;;;;;;4.60;2.75;;;10.30;76.80;;;;;;4984423;28;20095;-68
2024/01/29 11:50:15;;;;;;;4.90;3.50;;;10.30;76.80;;;;;;4988916;28;20523;-68
2024/01/29 11:52:40;;;;;;;4.43;3.10;;;10.40;76.70;;;;;;4982544;28;20450;-68
2024/01/29 11:55:06;;;;;;;4.88;3.40;;;10.50;76.60;;;;;;4990445;28;20033;-68
2024/01/29 11:57:32;;;;;;;4.43;3.10;;;10.60;76.60;;;;;;4981347;28;20026;-69
2024/01/29 12:00:01;;;;;;;5.30;3.35;;;10.60;76.50;;;;;;4989620;28;20485;-71
2024/01/29 12:02:27;;;;;;;7.50;4.70;;;10.70;76.50;;;;;;4983372;28;20035;-68
2024/01/29 12:04:53;;;;;;;5.13;3.22;;;10.80;76.50;;;;;;5009092;28;20058;-68
2024/01/29 12:07:19;;;;;;;6.80;4.18;;;10.80;76.40;;;;;;4981089;28;20101;-67
2024/01/29 12:09:44;;;;;;;5.13;3.42;;;10.90;76.50;;;;;;4979683;28;20065;-68
2024/01/29 12:12:11;;;;;;;5.00;3.50;;;11.00;76.50;;;;;;4982581;28;20116;-68
2024/01/29 12:14:36;;;;;;;5.53;3.97;;;11.20;76.60;;;;;;4984192;28;20037;-69
2024/01/29 12:17:05;;;;;;;4.80;3.40;;;11.70;76.30;;;;;;4979676;28;20023;-68
2024/01/29 12:19:31;;;;;;;4.40;3.25;;;12.40;74.90;;;;;;4980790;28;20028;-68
2024/01/29 12:21:56;;;;;;;4.22;3.28;;;13.10;73.40;;;;;;4979369;28;20038;-69
2024/01/29 12:24:22;;;;;;;5.13;3.10;;;13.20;72.30;;;;;;4977129;28;20106;-69
2024/01/29 12:26:47;;;;;;;6.30;3.88;;;13.30;72.10;;;;;;4979628;28;20516;-69
2024/01/29 12:29:14;;;;;;;5.22;3.40;;;13.20;71.80;;;;;;4982448;28;20019;-69
2024/01/29 12:31:39;;;;;;;3.85;2.80;;;12.80;72.30;;;;;;4979852;28;20035;-68
2024/01/29 12:34:08;;;;;;;4.80;3.42;;;12.60;73.90;;;;;;4983209;28;20038;-68
2024/01/29 12:36:33;;;;;;;5.72;3.03;;;12.40;73.70;;;;;;4981063;28;20061;-68
2024/01/29 12:39:00;;;;;;;4.53;3.22;;;12.20;75.00;;;;;;4978046;28;21518;-69
2024/01/29 12:41:33;;;;;;;7.78;5.10;;;12.40;74.80;;;;;;4984325;28;21397;-68
2024/01/29 12:44:10;;;;;;;5.93;3.90;;;12.80;74.00;;;;;;4980901;28;20019;-69
2024/01/29 12:46:36;;;;;;;5.43;3.63;;;13.00;73.40;;;;;;4981259;28;20085;-70
2024/01/29 12:49:03;;;;;;;7.07;3.75;;;13.40;73.00;;;;;;4987643;28;20039;-69
2024/01/29 12:51:28;;;;;;;6.45;4.35;;;13.70;72.30;;;;;;4984189;28;20030;-69